sensor_id;sensor_type;location;lat;lon;timestamp;pressure;altitude;pressure_sealevel;temperature;humidity
40946;BME280;55635;50.264;11.918;2023-05-23T00:00:27;95219.00;;;19.31;67.35
40946;BME280;55635;50.264;11.918;2023-05-23T00:03:12;95232.56;;;19.20;68.73
40946;BME280;55635;50.264;11.918;2023-05-23T00:05:53;95233.28;;;19.15;68.81
40946;BME280;55635;50.264;11.918;2023-05-23T00:08:36;95230.66;;;18.98;69.18
40946;BME280;55635;50.264;11.918;2023-05-23T00:11:16;95236.53;;;18.95;69.11
40946;BME280;55635;50.264;11.918;2023-05-23T00:13:59;95219.19;;;18.86;69.17
40946;BME280;55635;50.264;11.918;2023-05-23T00:16:43;95236.91;;;18.87;69.08
40946;BME280;55635;50.264;11.918;2023-05-23T00:19:24;95243.88;;;18.83;69.16
40946;BME280;55635;50.264;11.918;2023-05-23T00:22:05;95246.94;;;18.75;69.17
40946;BME280;55635;50.264;11.918;2023-05-23T00:24:46;95248.56;;;18.60;72.24
40946;BME280;55635;50.264;11.918;2023-05-23T00:27:27;95247.66;;;18.54;72.55
40946;BME280;55635;50.264;11.918;2023-05-23T00:30:09;95243.25;;;18.48;73.06
40946;BME280;55635;50.264;11.918;2023-05-23T00:32:50;95243.72;;;18.45;71.79
40946;BME280;55635;50.264;11.918;2023-05-23T00:35:35;95241.53;;;18.42;71.48
40946;BME280;55635;50.264;11.918;2023-05-23T00:38:16;95251.88;;;18.50;72.77
40946;BME280;55635;50.264;11.918;2023-05-23T00:40:57;95247.72;;;18.42;73.46
40946;BME280;55635;50.264;11.918;2023-05-23T00:43:38;95255.78;;;18.42;73.35
40946;BME280;55635;50.264;11.918;2023-05-23T00:46:19;95245.09;;;18.47;72.51
40946;BME280;55635;50.264;11.918;2023-05-23T00:49:00;95225.19;;;18.43;72.55
40946;BME280;55635;50.264;11.918;2023-05-23T00:51:41;95236.59;;;18.51;71.54
40946;BME280;55635;50.264;11.918;2023-05-23T00:54:27;95243.00;;;18.33;73.70
40946;BME280;55635;50.264;11.918;2023-05-23T00:57:09;95259.75;;;18.40;74.79
40946;BME280;55635;50.264;11.918;2023-05-23T00:59:51;95254.88;;;18.37;74.68
40946;BME280;55635;50.264;11.918;2023-05-23T01:02:34;95245.53;;;18.11;76.00
40946;BME280;55635;50.264;11.918;2023-05-23T01:05:18;95249.63;;;18.14;76.25
40946;BME280;55635;50.264;11.918;2023-05-23T01:08:01;95257.19;;;18.17;76.95
40946;BME280;55635;50.264;11.918;2023-05-23T01:10:42;95260.34;;;18.14;77.76
40946;BME280;55635;50.264;11.918;2023-05-23T01:13:58;95261.34;;;18.24;77.08
40946;BME280;55635;50.264;11.918;2023-05-23T01:17:02;95256.59;;;18.43;74.75
40946;BME280;55635;50.264;11.918;2023-05-23T01:19:58;95256.97;;;18.35;76.71
40946;BME280;55635;50.264;11.918;2023-05-23T01:29:10;95251.41;;;18.53;75.09
40946;BME280;55635;50.264;11.918;2023-05-23T01:31:54;95248.00;;;18.58;73.71
40946;BME280;55635;50.264;11.918;2023-05-23T01:34:37;95241.97;;;18.51;75.09
40946;BME280;55635;50.264;11.918;2023-05-23T01:37:19;95244.56;;;18.45;75.22
40946;BME280;55635;50.264;11.918;2023-05-23T01:40:00;95247.66;;;18.37;75.83
40946;BME280;55635;50.264;11.918;2023-05-23T01:42:41;95249.59;;;18.42;75.65
40946;BME280;55635;50.264;11.918;2023-05-23T01:45:26;95246.91;;;18.42;74.94
40946;BME280;55635;50.264;11.918;2023-05-23T01:48:07;95241.31;;;18.43;74.98
40946;BME280;55635;50.264;11.918;2023-05-23T01:50:49;95200.19;;;18.26;74.17
40946;BME280;55635;50.264;11.918;2023-05-23T01:53:30;95235.41;;;18.58;73.41
40946;BME280;55635;50.264;11.918;2023-05-23T01:56:12;95239.78;;;18.64;73.03
40946;BME280;55635;50.264;11.918;2023-05-23T01:58:54;95222.19;;;18.57;72.45
40946;BME280;55635;50.264;11.918;2023-05-23T02:01:36;95240.34;;;18.66;74.57
40946;BME280;55635;50.264;11.918;2023-05-23T02:04:18;95236.13;;;18.70;72.19
40946;BME280;55635;50.264;11.918;2023-05-23T02:06:59;95230.34;;;18.62;74.31
40946;BME280;55635;50.264;11.918;2023-05-23T02:09:40;95230.75;;;18.54;75.31
40946;BME280;55635;50.264;11.918;2023-05-23T02:12:21;95230.56;;;18.43;75.85
40946;BME280;55635;50.264;11.918;2023-05-23T02:15:02;95224.56;;;18.53;73.13
40946;BME280;55635;50.264;11.918;2023-05-23T02:17:44;95219.50;;;18.57;73.45
40946;BME280;55635;50.264;11.918;2023-05-23T02:20:25;95226.13;;;18.49;74.07
40946;BME280;55635;50.264;11.918;2023-05-23T02:23:06;95222.19;;;18.40;74.65
40946;BME280;55635;50.264;11.918;2023-05-23T02:25:47;95225.25;;;18.32;75.07
40946;BME280;55635;50.264;11.918;2023-05-23T02:28:28;95225.00;;;18.33;74.24
40946;BME280;55635;50.264;11.918;2023-05-23T02:31:09;95235.41;;;18.30;74.55
40946;BME280;55635;50.264;11.918;2023-05-23T02:33:51;95238.19;;;18.35;74.03
40946;BME280;55635;50.264;11.918;2023-05-23T02:36:31;95234.44;;;18.36;74.11
40946;BME280;55635;50.264;11.918;2023-05-23T02:39:13;95237.63;;;18.33;73.60
40946;BME280;55635;50.264;11.918;2023-05-23T02:41:54;95206.78;;;18.19;73.72
40946;BME280;55635;50.264;11.918;2023-05-23T02:44:35;95236.16;;;18.42;73.80
40946;BME280;55635;50.264;11.918;2023-05-23T02:47:16;95223.78;;;18.41;72.92
40946;BME280;55635;50.264;11.918;2023-05-23T02:49:57;95224.59;;;18.41;73.73
40946;BME280;55635;50.264;11.918;2023-05-23T02:52:38;95230.47;;;18.38;73.53
40946;BME280;55635;50.264;11.918;2023-05-23T02:55:19;95207.84;;;18.18;74.94
40946;BME280;55635;50.264;11.918;2023-05-23T02:58:02;95233.84;;;18.17;75.30
40946;BME280;55635;50.264;11.918;2023-05-23T03:00:45;95238.03;;;18.25;75.56
40946;BME280;55635;50.264;11.918;2023-05-23T03:03:26;95225.81;;;18.17;75.62
40946;BME280;55635;50.264;11.918;2023-05-23T03:06:08;95229.88;;;18.20;74.69
40946;BME280;55635;50.264;11.918;2023-05-23T03:08:53;95232.31;;;18.21;74.63
40946;BME280;55635;50.264;11.918;2023-05-23T03:11:36;95231.09;;;18.12;75.36
40946;BME280;55635;50.264;11.918;2023-05-23T03:14:17;95225.38;;;18.09;74.74
40946;BME280;55635;50.264;11.918;2023-05-23T03:16:58;95228.63;;;18.11;75.00
40946;BME280;55635;50.264;11.918;2023-05-23T03:19:39;95232.06;;;18.06;74.19
40946;BME280;55635;50.264;11.918;2023-05-23T03:22:20;95244.34;;;18.19;74.46
40946;BME280;55635;50.264;11.918;2023-05-23T03:25:01;95233.50;;;18.14;74.57
40946;BME280;55635;50.264;11.918;2023-05-23T03:27:42;95223.09;;;18.01;74.75
40946;BME280;55635;50.264;11.918;2023-05-23T03:30:23;95248.91;;;18.18;74.17
40946;BME280;55635;50.264;11.918;2023-05-23T03:33:04;95245.81;;;18.10;74.16
40946;BME280;55635;50.264;11.918;2023-05-23T03:35:45;95253.94;;;18.15;74.27
40946;BME280;55635;50.264;11.918;2023-05-23T03:38:26;95249.63;;;18.14;74.45
40946;BME280;55635;50.264;11.918;2023-05-23T03:41:07;95241.72;;;18.07;75.70
40946;BME280;55635;50.264;11.918;2023-05-23T03:43:49;95222.09;;;17.90;75.92
40946;BME280;55635;50.264;11.918;2023-05-23T03:46:30;95253.25;;;18.08;75.28
40946;BME280;55635;50.264;11.918;2023-05-23T03:49:11;95264.59;;;18.10;75.33
40946;BME280;55635;50.264;11.918;2023-05-23T03:51:52;95255.94;;;18.08;74.95
40946;BME280;55635;50.264;11.918;2023-05-23T03:54:33;95260.50;;;18.07;76.46
40946;BME280;55635;50.264;11.918;2023-05-23T03:57:14;95255.66;;;17.92;77.77
40946;BME280;55635;50.264;11.918;2023-05-23T03:59:55;95246.44;;;18.00;77.55
40946;BME280;55635;50.264;11.918;2023-05-23T04:02:36;95267.00;;;18.11;78.42
40946;BME280;55635;50.264;11.918;2023-05-23T04:05:19;95270.22;;;18.25;77.10
40946;BME280;55635;50.264;11.918;2023-05-23T04:08:02;95281.06;;;18.30;77.86
40946;BME280;55635;50.264;11.918;2023-05-23T04:10:44;95271.63;;;18.27;77.79
40946;BME280;55635;50.264;11.918;2023-05-23T04:13:25;95276.91;;;18.39;77.69
40946;BME280;55635;50.264;11.918;2023-05-23T04:16:07;95286.47;;;18.46;77.42
40946;BME280;55635;50.264;11.918;2023-05-23T04:18:48;95278.44;;;18.35;77.90
40946;BME280;55635;50.264;11.918;2023-05-23T04:21:29;95279.53;;;18.34;78.40
40946;BME280;55635;50.264;11.918;2023-05-23T04:24:37;95287.72;;;18.44;77.93
40946;BME280;55635;50.264;11.918;2023-05-23T04:27:18;95290.75;;;18.31;78.20
40946;BME280;55635;50.264;11.918;2023-05-23T04:30:00;95290.00;;;18.35;77.73
40946;BME280;55635;50.264;11.918;2023-05-23T04:32:41;95285.44;;;18.36;77.35
40946;BME280;55635;50.264;11.918;2023-05-23T04:35:22;95301.16;;;18.44;77.33
40946;BME280;55635;50.264;11.918;2023-05-23T04:38:05;95290.63;;;18.26;77.60
40946;BME280;55635;50.264;11.918;2023-05-23T04:40:49;95293.91;;;18.28;77.73
40946;BME280;55635;50.264;11.918;2023-05-23T04:43:51;95303.69;;;18.34;77.40
40946;BME280;55635;50.264;11.918;2023-05-23T04:46:51;95298.13;;;18.52;76.97
40946;BME280;55635;50.264;11.918;2023-05-23T04:49:51;95308.63;;;18.25;78.22
40946;BME280;55635;50.264;11.918;2023-05-23T04:52:33;95302.91;;;18.22;78.11
40946;BME280;55635;50.264;11.918;2023-05-23T04:55:14;95300.25;;;18.22;77.95
40946;BME280;55635;50.264;11.918;2023-05-23T04:57:55;95310.53;;;18.13;78.29
40946;BME280;55635;50.264;11.918;2023-05-23T05:00:36;95307.00;;;18.24;78.09
40946;BME280;55635;50.264;11.918;2023-05-23T05:03:17;95316.34;;;18.22;78.13
40946;BME280;55635;50.264;11.918;2023-05-23T05:05:59;95308.22;;;18.33;77.91
40946;BME280;55635;50.264;11.918;2023-05-23T05:08:42;95314.59;;;18.44;77.20
40946;BME280;55635;50.264;11.918;2023-05-23T05:11:25;95297.91;;;18.42;77.97
40946;BME280;55635;50.264;11.918;2023-05-23T05:14:10;95313.75;;;18.55;76.22
40946;BME280;55635;50.264;11.918;2023-05-23T05:16:51;95312.69;;;18.56;76.46
40946;BME280;55635;50.264;11.918;2023-05-23T05:19:36;95301.63;;;18.53;76.11
40946;BME280;55635;50.264;11.918;2023-05-23T05:22:17;95320.03;;;18.61;75.96
40946;BME280;55635;50.264;11.918;2023-05-23T05:24:58;95309.22;;;18.44;76.04
40946;BME280;55635;50.264;11.918;2023-05-23T05:27:39;95302.03;;;18.33;77.16
40946;BME280;55635;50.264;11.918;2023-05-23T05:30:23;95283.34;;;18.38;76.42
40946;BME280;55635;50.264;11.918;2023-05-23T05:33:07;95316.53;;;18.60;75.42
40946;BME280;55635;50.264;11.918;2023-05-23T05:35:49;95308.81;;;18.80;75.32
40946;BME280;55635;50.264;11.918;2023-05-23T05:38:34;95307.19;;;18.96;74.12
40946;BME280;55635;50.264;11.918;2023-05-23T05:41:15;95311.41;;;19.09;74.08
40946;BME280;55635;50.264;11.918;2023-05-23T05:44:01;95296.59;;;19.23;73.52
40946;BME280;55635;50.264;11.918;2023-05-23T05:46:42;95301.22;;;19.27;72.52
40946;BME280;55635;50.264;11.918;2023-05-23T05:49:23;95319.28;;;19.48;72.68
40946;BME280;55635;50.264;11.918;2023-05-23T05:52:05;95304.41;;;19.41;72.11
40946;BME280;55635;50.264;11.918;2023-05-23T05:54:47;95321.44;;;19.46;71.84
40946;BME280;55635;50.264;11.918;2023-05-23T05:57:28;95326.63;;;19.53;72.38
40946;BME280;55635;50.264;11.918;2023-05-23T06:00:13;95321.84;;;19.22;72.60
40946;BME280;55635;50.264;11.918;2023-05-23T06:03:05;95325.41;;;19.27;71.85
40946;BME280;55635;50.264;11.918;2023-05-23T06:05:59;95322.50;;;19.29;72.55
40946;BME280;55635;50.264;11.918;2023-05-23T06:08:43;95324.59;;;19.27;72.08
40946;BME280;55635;50.264;11.918;2023-05-23T06:11:29;95331.53;;;19.23;72.47
40946;BME280;55635;50.264;11.918;2023-05-23T06:14:10;95331.94;;;19.31;72.17
40946;BME280;55635;50.264;11.918;2023-05-23T06:16:54;95327.13;;;19.50;72.58
40946;BME280;55635;50.264;11.918;2023-05-23T06:19:35;95341.94;;;19.36;71.14
40946;BME280;55635;50.264;11.918;2023-05-23T06:22:18;95340.22;;;19.30;71.60
40946;BME280;55635;50.264;11.918;2023-05-23T06:24:59;95347.41;;;19.24;71.68
40946;BME280;55635;50.264;11.918;2023-05-23T06:27:40;95342.13;;;19.29;71.33
40946;BME280;55635;50.264;11.918;2023-05-23T06:30:21;95346.75;;;19.34;71.19
40946;BME280;55635;50.264;11.918;2023-05-23T06:33:03;95344.63;;;19.36;71.01
40946;BME280;55635;50.264;11.918;2023-05-23T06:35:44;95338.88;;;19.44;70.12
40946;BME280;55635;50.264;11.918;2023-05-23T06:38:27;95347.06;;;19.54;69.94
40946;BME280;55635;50.264;11.918;2023-05-23T06:41:09;95347.56;;;19.51;70.46
40946;BME280;55635;50.264;11.918;2023-05-23T06:43:51;95351.66;;;19.53;70.42
40946;BME280;55635;50.264;11.918;2023-05-23T06:46:41;95350.41;;;19.99;70.20
40946;BME280;55635;50.264;11.918;2023-05-23T06:49:23;95339.94;;;19.81;69.45
40946;BME280;55635;50.264;11.918;2023-05-23T06:52:04;95350.09;;;20.18;68.71
40946;BME280;55635;50.264;11.918;2023-05-23T06:54:45;95347.59;;;20.33;67.73
40946;BME280;55635;50.264;11.918;2023-05-23T06:57:26;95347.97;;;20.41;67.21
40946;BME280;55635;50.264;11.918;2023-05-23T07:00:08;95346.59;;;20.39;67.57
40946;BME280;55635;50.264;11.918;2023-05-23T07:02:56;95356.94;;;20.52;66.69
40946;BME280;55635;50.264;11.918;2023-05-23T07:05:43;95351.34;;;20.32;67.63
40946;BME280;55635;50.264;11.918;2023-05-23T07:08:25;95356.19;;;20.30;67.28
40946;BME280;55635;50.264;11.918;2023-05-23T07:11:14;95349.50;;;20.16;67.04
40946;BME280;55635;50.264;11.918;2023-05-23T07:13:58;95339.31;;;20.18;67.01
40946;BME280;55635;50.264;11.918;2023-05-23T07:16:50;95360.06;;;20.39;67.05
40946;BME280;55635;50.264;11.918;2023-05-23T07:19:31;95361.22;;;20.48;66.64
40946;BME280;55635;50.264;11.918;2023-05-23T07:22:12;95359.63;;;20.52;66.85
40946;BME280;55635;50.264;11.918;2023-05-23T07:24:56;95358.88;;;20.83;66.28
40946;BME280;55635;50.264;11.918;2023-05-23T07:27:40;95316.34;;;20.32;64.95
40946;BME280;55635;50.264;11.918;2023-05-23T07:30:21;95360.56;;;20.62;65.61
40946;BME280;55635;50.264;11.918;2023-05-23T07:33:02;95356.91;;;20.74;65.48
40946;BME280;55635;50.264;11.918;2023-05-23T07:35:46;95356.63;;;20.70;64.97
40946;BME280;55635;50.264;11.918;2023-05-23T07:38:27;95359.66;;;20.79;65.20
40946;BME280;55635;50.264;11.918;2023-05-23T07:41:08;95348.38;;;20.82;64.80
40946;BME280;55635;50.264;11.918;2023-05-23T07:43:49;95346.44;;;20.77;64.91
40946;BME280;55635;50.264;11.918;2023-05-23T07:46:30;95347.09;;;20.36;65.16
40946;BME280;55635;50.264;11.918;2023-05-23T07:49:11;95332.25;;;20.12;66.03
40946;BME280;55635;50.264;11.918;2023-05-23T07:51:53;95359.72;;;20.14;66.17
40946;BME280;55635;50.264;11.918;2023-05-23T07:54:34;95355.16;;;19.92;65.75
40946;BME280;55635;50.264;11.918;2023-05-23T07:57:16;95356.81;;;19.77;65.80
40946;BME280;55635;50.264;11.918;2023-05-23T07:59:58;95357.28;;;19.90;66.23
40946;BME280;55635;50.264;11.918;2023-05-23T08:02:41;95359.25;;;20.00;65.33
40946;BME280;55635;50.264;11.918;2023-05-23T08:05:27;95372.03;;;19.66;66.17
40946;BME280;55635;50.264;11.918;2023-05-23T08:08:10;95343.31;;;19.55;66.72
40946;BME280;55635;50.264;11.918;2023-05-23T08:10:52;95345.47;;;19.20;67.37
40946;BME280;55635;50.264;11.918;2023-05-23T08:13:39;95386.34;;;19.22;67.98
40946;BME280;55635;50.264;11.918;2023-05-23T08:16:38;95386.41;;;19.27;67.49
40946;BME280;55635;50.264;11.918;2023-05-23T08:19:28;95393.63;;;19.38;67.26
40946;BME280;55635;50.264;11.918;2023-05-23T08:22:09;95391.97;;;19.37;66.93
40946;BME280;55635;50.264;11.918;2023-05-23T08:24:50;95392.63;;;19.61;67.09
40946;BME280;55635;50.264;11.918;2023-05-23T08:27:31;95402.50;;;19.55;65.45
40946;BME280;55635;50.264;11.918;2023-05-23T08:30:16;95396.47;;;19.48;66.39
40946;BME280;55635;50.264;11.918;2023-05-23T08:32:59;95393.38;;;19.56;65.35
40946;BME280;55635;50.264;11.918;2023-05-23T08:35:44;95398.22;;;19.92;64.43
40946;BME280;55635;50.264;11.918;2023-05-23T08:38:27;95383.06;;;20.08;63.80
40946;BME280;55635;50.264;11.918;2023-05-23T08:41:21;95367.56;;;20.37;63.04
40946;BME280;55635;50.264;11.918;2023-05-23T08:44:06;95391.38;;;21.57;60.40
40946;BME280;55635;50.264;11.918;2023-05-23T08:46:53;95392.13;;;22.36;57.58
40946;BME280;55635;50.264;11.918;2023-05-23T08:49:54;95401.78;;;22.89;56.24
40946;BME280;55635;50.264;11.918;2023-05-23T08:52:37;95369.38;;;23.55;53.43
40946;BME280;55635;50.264;11.918;2023-05-23T08:55:24;95398.31;;;23.79;52.40
40946;BME280;55635;50.264;11.918;2023-05-23T08:58:07;95400.06;;;24.50;50.92
40946;BME280;55635;50.264;11.918;2023-05-23T09:00:56;95397.34;;;25.09;48.84
40946;BME280;55635;50.264;11.918;2023-05-23T09:03:39;95411.38;;;24.67;50.23
40946;BME280;55635;50.264;11.918;2023-05-23T09:06:35;95415.38;;;23.35;52.13
40946;BME280;55635;50.264;11.918;2023-05-23T09:09:17;95416.19;;;23.30;53.43
40946;BME280;55635;50.264;11.918;2023-05-23T09:11:58;95416.94;;;23.00;52.62
40946;BME280;55635;50.264;11.918;2023-05-23T09:14:41;95402.66;;;23.85;51.79
40946;BME280;55635;50.264;11.918;2023-05-23T09:17:25;95406.16;;;23.96;51.85
40946;BME280;55635;50.264;11.918;2023-05-23T09:20:16;95420.25;;;23.93;52.11
40946;BME280;55635;50.264;11.918;2023-05-23T09:23:05;95414.84;;;23.93;51.91
40946;BME280;55635;50.264;11.918;2023-05-23T09:25:47;95423.53;;;23.75;51.99
40946;BME280;55635;50.264;11.918;2023-05-23T09:28:31;95410.50;;;23.87;51.85
40946;BME280;55635;50.264;11.918;2023-05-23T09:31:13;95413.19;;;23.92;51.80
40946;BME280;55635;50.264;11.918;2023-05-23T09:33:54;95417.00;;;24.06;51.03
40946;BME280;55635;50.264;11.918;2023-05-23T09:36:35;95415.69;;;23.48;51.85
40946;BME280;55635;50.264;11.918;2023-05-23T09:39:16;95424.06;;;23.62;51.72
40946;BME280;55635;50.264;11.918;2023-05-23T09:41:59;95425.13;;;23.20;52.28
40946;BME280;55635;50.264;11.918;2023-05-23T09:44:40;95428.66;;;23.41;52.22
40946;BME280;55635;50.264;11.918;2023-05-23T09:47:23;95428.34;;;23.22;52.06
40946;BME280;55635;50.264;11.918;2023-05-23T09:50:05;95442.91;;;22.96;52.84
40946;BME280;55635;50.264;11.918;2023-05-23T09:52:47;95444.84;;;23.11;52.63
40946;BME280;55635;50.264;11.918;2023-05-23T09:55:29;95437.81;;;22.48;53.81
40946;BME280;55635;50.264;11.918;2023-05-23T09:58:10;95438.34;;;22.45;53.25
40946;BME280;55635;50.264;11.918;2023-05-23T10:00:52;95418.22;;;22.15;53.24
40946;BME280;55635;50.264;11.918;2023-05-23T10:06:40;95453.44;;;21.57;54.12
40946;BME280;55635;50.264;11.918;2023-05-23T10:09:24;95448.41;;;21.39;55.25
40946;BME280;55635;50.264;11.918;2023-05-23T10:12:42;95460.34;;;21.43;54.79
40946;BME280;55635;50.264;11.918;2023-05-23T10:15:29;95458.19;;;21.45;54.76
40946;BME280;55635;50.264;11.918;2023-05-23T10:18:19;95451.16;;;21.12;55.52
40946;BME280;55635;50.264;11.918;2023-05-23T10:21:05;95458.94;;;21.08;55.69
40946;BME280;55635;50.264;11.918;2023-05-23T10:23:49;95464.16;;;21.20;56.14
40946;BME280;55635;50.264;11.918;2023-05-23T10:26:30;95465.97;;;21.41;54.89
40946;BME280;55635;50.264;11.918;2023-05-23T10:29:11;95466.94;;;21.25;55.97
40946;BME280;55635;50.264;11.918;2023-05-23T10:31:52;95465.72;;;21.43;55.29
40946;BME280;55635;50.264;11.918;2023-05-23T10:38:31;95472.16;;;20.88;55.38
40946;BME280;55635;50.264;11.918;2023-05-23T10:41:28;95472.72;;;21.44;55.72
40946;BME280;55635;50.264;11.918;2023-05-23T10:44:30;95470.00;;;21.39;54.73
40946;BME280;55635;50.264;11.918;2023-05-23T10:47:11;95468.53;;;21.04;53.82
40946;BME280;55635;50.264;11.918;2023-05-23T10:49:54;95473.06;;;20.99;54.08
40946;BME280;55635;50.264;11.918;2023-05-23T10:52:41;95449.22;;;20.64;54.74
40946;BME280;55635;50.264;11.918;2023-05-23T10:55:23;95456.44;;;20.80;54.60
40946;BME280;55635;50.264;11.918;2023-05-23T10:58:20;95471.63;;;21.71;54.03
40946;BME280;55635;50.264;11.918;2023-05-23T11:01:12;95471.16;;;21.80;52.48
40946;BME280;55635;50.264;11.918;2023-05-23T11:03:53;95472.44;;;22.51;51.90
40946;BME280;55635;50.264;11.918;2023-05-23T11:06:42;95464.31;;;22.51;51.13
40946;BME280;55635;50.264;11.918;2023-05-23T11:09:27;95469.34;;;22.74;51.23
40946;BME280;55635;50.264;11.918;2023-05-23T11:12:08;95467.84;;;22.51;51.41
40946;BME280;55635;50.264;11.918;2023-05-23T11:17:32;95480.22;;;21.95;50.41
40946;BME280;55635;50.264;11.918;2023-05-23T11:20:13;95477.94;;;22.19;50.21
40946;BME280;55635;50.264;11.918;2023-05-23T11:23:02;95475.94;;;22.46;50.30
40946;BME280;55635;50.264;11.918;2023-05-23T11:25:49;95474.97;;;23.80;48.08
40946;BME280;55635;50.264;11.918;2023-05-23T11:28:55;95461.69;;;25.03;45.71
40946;BME280;55635;50.264;11.918;2023-05-23T11:31:39;95455.28;;;24.84;45.05
40946;BME280;55635;50.264;11.918;2023-05-23T11:34:22;95457.38;;;24.18;45.38
40946;BME280;55635;50.264;11.918;2023-05-23T11:37:03;95466.31;;;23.88;46.27
40946;BME280;55635;50.264;11.918;2023-05-23T11:39:44;95460.09;;;23.72;46.13
40946;BME280;55635;50.264;11.918;2023-05-23T11:42:25;95458.09;;;23.27;46.89
40946;BME280;55635;50.264;11.918;2023-05-23T11:45:08;95455.75;;;23.56;46.84
40946;BME280;55635;50.264;11.918;2023-05-23T11:47:49;95473.06;;;23.50;46.87
40946;BME280;55635;50.264;11.918;2023-05-23T11:50:30;95463.13;;;22.73;47.34
40946;BME280;55635;50.264;11.918;2023-05-23T11:53:12;95465.97;;;22.52;47.64
40946;BME280;55635;50.264;11.918;2023-05-23T11:56:00;95481.59;;;23.07;48.13
40946;BME280;55635;50.264;11.918;2023-05-23T11:58:41;95481.94;;;23.20;47.83
40946;BME280;55635;50.264;11.918;2023-05-23T12:01:28;95493.63;;;23.46;47.58
40946;BME280;55635;50.264;11.918;2023-05-23T12:04:11;95479.34;;;22.73;48.59
40946;BME280;55635;50.264;11.918;2023-05-23T12:06:56;95485.41;;;22.49;49.86
40946;BME280;55635;50.264;11.918;2023-05-23T12:09:43;95488.06;;;21.97;51.07
40946;BME280;55635;50.264;11.918;2023-05-23T12:12:24;95489.84;;;21.86;51.27
40946;BME280;55635;50.264;11.918;2023-05-23T12:15:06;95490.91;;;21.53;51.64
40946;BME280;55635;50.264;11.918;2023-05-23T12:17:47;95489.97;;;21.69;52.12
40946;BME280;55635;50.264;11.918;2023-05-23T12:20:30;95493.13;;;21.88;51.97
40946;BME280;55635;50.264;11.918;2023-05-23T12:23:22;95490.59;;;21.77;52.33
40946;BME280;55635;50.264;11.918;2023-05-23T12:26:04;95495.38;;;22.01;52.07
40946;BME280;55635;50.264;11.918;2023-05-23T12:28:51;95488.00;;;21.60;52.37
40946;BME280;55635;50.264;11.918;2023-05-23T12:31:32;95499.06;;;21.90;51.58
40946;BME280;55635;50.264;11.918;2023-05-23T12:34:13;95498.69;;;21.50;53.25
40946;BME280;55635;50.264;11.918;2023-05-23T12:36:59;95504.91;;;21.77;53.33
40946;BME280;55635;50.264;11.918;2023-05-23T12:39:43;95500.72;;;21.96;53.13
40946;BME280;55635;50.264;11.918;2023-05-23T12:42:24;95509.66;;;21.38;54.59
40946;BME280;55635;50.264;11.918;2023-05-23T12:45:06;95508.63;;;21.71;53.77
40946;BME280;55635;50.264;11.918;2023-05-23T12:47:47;95507.63;;;21.82;53.89
40946;BME280;55635;50.264;11.918;2023-05-23T12:50:29;95509.00;;;21.85;53.91
40946;BME280;55635;50.264;11.918;2023-05-23T12:53:10;95501.97;;;22.15;53.17
40946;BME280;55635;50.264;11.918;2023-05-23T12:55:51;95516.41;;;21.94;53.35
40946;BME280;55635;50.264;11.918;2023-05-23T12:58:32;95520.34;;;21.87;53.30
40946;BME280;55635;50.264;11.918;2023-05-23T13:01:14;95519.09;;;21.94;53.55
40946;BME280;55635;50.264;11.918;2023-05-23T13:03:55;95518.81;;;21.64;54.46
40946;BME280;55635;50.264;11.918;2023-05-23T13:06:36;95532.34;;;21.15;55.51
40946;BME280;55635;50.264;11.918;2023-05-23T13:09:17;95521.69;;;20.82;56.33
40946;BME280;55635;50.264;11.918;2023-05-23T13:11:58;95534.97;;;20.67;57.03
40946;BME280;55635;50.264;11.918;2023-05-23T13:14:40;95537.66;;;20.29;59.94
40946;BME280;55635;50.264;11.918;2023-05-23T13:17:21;95542.06;;;20.01;60.08
40946;BME280;55635;50.264;11.918;2023-05-23T13:20:02;95541.41;;;20.11;60.50
40946;BME280;55635;50.264;11.918;2023-05-23T13:22:44;95539.84;;;19.82;60.22
40946;BME280;55635;50.264;11.918;2023-05-23T13:25:26;95547.63;;;20.12;59.58
40946;BME280;55635;50.264;11.918;2023-05-23T13:28:07;95542.44;;;19.60;60.69
40946;BME280;55635;50.264;11.918;2023-05-23T13:30:48;95535.63;;;19.69;60.53
40946;BME280;55635;50.264;11.918;2023-05-23T13:33:29;95536.84;;;19.95;60.94
40946;BME280;55635;50.264;11.918;2023-05-23T13:36:10;95540.81;;;20.09;60.76
40946;BME280;55635;50.264;11.918;2023-05-23T13:38:51;95546.97;;;20.04;59.95
40946;BME280;55635;50.264;11.918;2023-05-23T13:41:32;95546.81;;;19.78;60.59
40946;BME280;55635;50.264;11.918;2023-05-23T13:44:13;95541.50;;;19.83;61.59
40946;BME280;55635;50.264;11.918;2023-05-23T13:46:56;95536.53;;;19.91;61.07
40946;BME280;55635;50.264;11.918;2023-05-23T13:49:38;95530.00;;;20.04;60.06
40946;BME280;55635;50.264;11.918;2023-05-23T13:52:19;95534.56;;;20.20;59.83
40946;BME280;55635;50.264;11.918;2023-05-23T13:55:00;95538.97;;;19.31;61.51
40946;BME280;55635;50.264;11.918;2023-05-23T13:57:42;95544.28;;;19.71;61.35
40946;BME280;55635;50.264;11.918;2023-05-23T14:00:23;95546.44;;;19.41;61.76
40946;BME280;55635;50.264;11.918;2023-05-23T14:03:04;95558.69;;;19.37;62.65
40946;BME280;55635;50.264;11.918;2023-05-23T14:05:44;95543.16;;;18.99;62.88
40946;BME280;55635;50.264;11.918;2023-05-23T14:08:25;95559.47;;;18.92;64.60
40946;BME280;55635;50.264;11.918;2023-05-23T14:11:09;95557.88;;;18.57;64.93
40946;BME280;55635;50.264;11.918;2023-05-23T14:13:53;95561.03;;;18.65;65.02
40946;BME280;55635;50.264;11.918;2023-05-23T14:16:35;95552.41;;;18.40;65.66
40946;BME280;55635;50.264;11.918;2023-05-23T14:19:16;95569.91;;;17.96;67.11
40946;BME280;55635;50.264;11.918;2023-05-23T14:21:57;95577.47;;;18.11;67.20
40946;BME280;55635;50.264;11.918;2023-05-23T14:24:38;95563.03;;;18.12;66.92
40946;BME280;55635;50.264;11.918;2023-05-23T14:27:18;95575.28;;;18.08;67.53
40946;BME280;55635;50.264;11.918;2023-05-23T14:29:59;95570.56;;;17.80;68.34